Time;durP1;ratioP1;P1;durP2;ratioP2;P2;SDS_P1;SDS_P2;PMS_P1;PMS_P2;Temp;Humidity;BMP_temperature;BMP_pressure;BME280_temperature;BME280_humidity;BME280_pressure;Samples;Min_cycle;Max_cycle;Signal;HPM_P1;HPM_P2
2024/03/13 00:01:31;;;;;;;53.22;23.45;;;;;;;;;;7347705;19;20316;-44
2024/03/13 00:04:01;;;;;;;54.13;22.83;;;;;;;;;;7325315;19;20397;-46
2024/03/13 00:06:30;;;;;;;50.77;23.47;;;;;;;;;;7348578;19;20316;-44
2024/03/13 00:09:03;;;;;;;54.42;23.10;;;;;;;;;;7324762;19;20408;-46
2024/03/13 00:11:33;;;;;;;50.47;22.25;;;;;;;;;;7347678;19;20318;-46
2024/03/13 00:14:02;;;;;;;56.05;23.58;;;;;;;;;;7326729;19;20321;-45
2024/03/13 00:16:32;;;;;;;53.60;23.35;;;;;;;;;;7348061;19;20731;-44
2024/03/13 00:19:03;;;;;;;55.03;23.77;;;;;;;;;;7325139;19;20292;-48
2024/03/13 00:21:35;;;;;;;50.97;23.60;;;;;;;;;;7347317;19;20899;-46
2024/03/13 00:24:08;;;;;;;51.05;23.90;;;;;;;;;;7325968;19;20697;-44
2024/03/13 00:26:37;;;;;;;48.70;23.02;;;;;;;;;;7336928;19;20309;-44
2024/03/13 00:29:08;;;;;;;55.65;23.75;;;;;;;;;;7344580;19;20396;-49
2024/03/13 00:31:38;;;;;;;52.70;23.73;;;;;;;;;;7333709;19;20418;-43
2024/03/13 00:34:07;;;;;;;51.78;23.67;;;;;;;;;;7346601;19;20354;-44
2024/03/13 00:36:37;;;;;;;56.55;25.17;;;;;;;;;;7339043;19;20328;-43
2024/03/13 00:39:10;;;;;;;52.20;23.73;;;;;;;;;;7346356;19;20324;-47
2024/03/13 00:41:39;;;;;;;53.20;24.73;;;;;;;;;;7323556;19;20956;-43
2024/03/13 00:44:09;;;;;;;60.70;25.95;;;;;;;;;;7348409;19;20335;-44
2024/03/13 00:46:40;;;;;;;62.30;27.05;;;;;;;;;;7324414;19;20423;-44
2024/03/13 00:49:07;;;;;;;54.63;25.00;;;;;;;;;;7346291;19;20332;-44
2024/03/13 00:51:37;;;;;;;54.47;24.77;;;;;;;;;;7341020;19;20506;-45
2024/03/13 00:54:09;;;;;;;58.13;25.50;;;;;;;;;;7346108;19;20328;-44
2024/03/13 00:56:39;;;;;;;58.80;25.80;;;;;;;;;;7323672;19;20335;-46
2024/03/13 00:59:10;;;;;;;60.15;25.70;;;;;;;;;;7344573;19;20328;-49
2024/03/13 01:01:40;;;;;;;63.17;25.65;;;;;;;;;;7322176;19;20678;-45
2024/03/13 01:04:10;;;;;;;66.03;27.17;;;;;;;;;;7344727;19;20900;-44
2024/03/13 01:06:40;;;;;;;68.53;27.92;;;;;;;;;;7323358;19;20332;-48
2024/03/13 01:09:13;;;;;;;69.00;27.05;;;;;;;;;;7344137;19;20320;-46
2024/03/13 01:11:42;;;;;;;75.93;28.10;;;;;;;;;;7322309;19;20333;-46
2024/03/13 01:14:13;;;;;;;81.30;29.17;;;;;;;;;;7346370;19;20448;-45
2024/03/13 01:16:43;;;;;;;76.45;29.15;;;;;;;;;;7322614;19;20332;-46
2024/03/13 01:19:12;;;;;;;72.45;28.70;;;;;;;;;;7344348;19;20313;-44
2024/03/13 01:21:42;;;;;;;66.80;26.88;;;;;;;;;;7321528;19;20871;-44
2024/03/13 01:24:13;;;;;;;63.17;26.00;;;;;;;;;;7344501;19;20329;-44
2024/03/13 01:26:43;;;;;;;65.50;27.07;;;;;;;;;;7321677;19;20619;-44
2024/03/13 01:29:12;;;;;;;73.97;29.63;;;;;;;;;;7343143;19;20356;-44
2024/03/13 01:31:42;;;;;;;72.93;28.33;;;;;;;;;;7321729;19;21063;-45
2024/03/13 01:34:12;;;;;;;71.15;28.35;;;;;;;;;;7345043;19;20920;-46
2024/03/13 01:39:26;;;;;;;64.10;28.05;;;;;;;;;;7344335;19;20758;-47
2024/03/13 01:55:30;;;;;;;65.43;26.30;;;;;;;;;;7344644;19;20348;-46
2024/03/13 01:58:10;;;;;;;70.28;28.90;;;;;;;;;;7321926;19;20404;-45
2024/03/13 02:03:24;;;;;;;60.65;25.27;;;;;;;;;;7344078;19;20317;-44
2024/03/13 02:05:54;;;;;;;63.03;24.73;;;;;;;;;;7321802;19;20755;-46
2024/03/13 02:08:24;;;;;;;70.05;28.88;;;;;;;;;;7343497;19;20345;-43
2024/03/13 02:10:58;;;;;;;63.47;26.45;;;;;;;;;;7320928;19;20333;-44
2024/03/13 02:13:28;;;;;;;70.23;26.80;;;;;;;;;;7343939;19;20677;-44
2024/03/13 02:15:58;;;;;;;72.00;27.33;;;;;;;;;;7322564;19;20966;-45
2024/03/13 02:18:30;;;;;;;76.25;27.95;;;;;;;;;;7343204;19;20413;-44
2024/03/13 02:21:01;;;;;;;77.50;28.60;;;;;;;;;;7319080;19;20399;-46
2024/03/13 02:23:33;;;;;;;82.60;29.90;;;;;;;;;;7343808;19;20368;-44
2024/03/13 02:26:14;;;;;;;75.78;28.90;;;;;;;;;;7321692;19;20730;-47
2024/03/13 02:28:44;;;;;;;81.50;29.10;;;;;;;;;;7315460;19;20942;-43
2024/03/13 02:31:13;;;;;;;92.10;30.13;;;;;;;;;;7341829;19;20388;-43
2024/03/13 02:33:43;;;;;;;80.50;29.58;;;;;;;;;;7320410;19;20692;-46
2024/03/13 02:36:12;;;;;;;70.63;29.20;;;;;;;;;;7342746;19;20333;-46
2024/03/13 02:38:44;;;;;;;66.93;28.08;;;;;;;;;;7316711;19;20864;-45
2024/03/13 02:41:12;;;;;;;69.72;27.15;;;;;;;;;;7340867;19;20382;-42
2024/03/13 02:43:41;;;;;;;70.73;29.93;;;;;;;;;;7321271;19;20332;-43
2024/03/13 02:46:12;;;;;;;70.70;28.55;;;;;;;;;;7342734;19;20365;-46
2024/03/13 02:48:42;;;;;;;73.80;28.40;;;;;;;;;;7320181;19;20340;-43
2024/03/13 02:51:11;;;;;;;67.05;27.20;;;;;;;;;;7343137;19;20880;-42
2024/03/13 02:53:41;;;;;;;71.78;28.42;;;;;;;;;;7320034;19;20436;-44
2024/03/13 02:56:13;;;;;;;72.43;28.00;;;;;;;;;;7342973;19;20338;-44
2024/03/13 02:58:44;;;;;;;68.90;28.88;;;;;;;;;;7318863;19;20416;-42
2024/03/13 03:01:14;;;;;;;68.85;27.75;;;;;;;;;;7341902;19;20392;-42
2024/03/13 03:03:46;;;;;;;61.95;26.50;;;;;;;;;;7321632;19;20872;-43
2024/03/13 03:06:16;;;;;;;68.10;27.80;;;;;;;;;;7341916;19;20716;-44
2024/03/13 03:08:46;;;;;;;62.92;27.20;;;;;;;;;;7319901;19;20320;-43
2024/03/13 03:11:18;;;;;;;61.38;25.50;;;;;;;;;;7341213;19;20332;-43
2024/03/13 03:13:47;;;;;;;68.32;27.55;;;;;;;;;;7319661;19;20704;-44
2024/03/13 03:16:18;;;;;;;66.43;27.93;;;;;;;;;;7343183;19;20420;-42
2024/03/13 03:18:49;;;;;;;69.47;27.50;;;;;;;;;;7318571;19;20341;-43
2024/03/13 03:21:19;;;;;;;79.78;28.63;;;;;;;;;;7341070;19;20925;-41
2024/03/13 03:23:48;;;;;;;75.35;30.05;;;;;;;;;;7319471;19;20388;-44
2024/03/13 03:26:23;;;;;;;72.95;27.27;;;;;;;;;;7341456;19;20333;-42
2024/03/13 03:28:53;;;;;;;82.70;29.35;;;;;;;;;;7316849;19;20320;-43
2024/03/13 03:31:23;;;;;;;74.97;26.80;;;;;;;;;;7342167;19;20959;-44
2024/03/13 03:33:53;;;;;;;73.65;27.95;;;;;;;;;;7325062;19;20408;-42
2024/03/13 03:36:23;;;;;;;76.05;27.77;;;;;;;;;;7351357;19;20659;-44
2024/03/13 03:38:52;;;;;;;72.97;27.30;;;;;;;;;;7325075;19;20865;-42
2024/03/13 03:41:24;;;;;;;75.13;28.33;;;;;;;;;;7351242;19;20411;-48
2024/03/13 03:43:54;;;;;;;81.65;27.77;;;;;;;;;;7330718;19;20799;-46
2024/03/13 03:46:24;;;;;;;82.57;30.17;;;;;;;;;;7350568;19;20730;-45
2024/03/13 03:48:53;;;;;;;72.50;27.73;;;;;;;;;;7330452;19;20320;-42
2024/03/13 03:51:24;;;;;;;78.07;29.10;;;;;;;;;;7351044;19;20354;-44
2024/03/13 03:53:53;;;;;;;81.18;29.70;;;;;;;;;;7330359;19;20329;-42
2024/03/13 03:56:27;;;;;;;86.47;29.73;;;;;;;;;;7351270;19;20332;-42
2024/03/13 03:58:56;;;;;;;92.78;31.35;;;;;;;;;;7327772;19;20364;-46
2024/03/13 04:01:27;;;;;;;93.47;32.10;;;;;;;;;;7351649;19;20397;-44
2024/03/13 04:03:58;;;;;;;90.70;30.63;;;;;;;;;;7330507;19;20338;-43
2024/03/13 04:06:27;;;;;;;89.13;31.63;;;;;;;;;;7351481;19;20393;-42
2024/03/13 04:08:57;;;;;;;94.38;32.97;;;;;;;;;;7328782;19;20810;-43
2024/03/13 04:11:29;;;;;;;83.60;31.35;;;;;;;;;;7351397;19;20671;-43
2024/03/13 04:13:58;;;;;;;83.35;29.58;;;;;;;;;;7327331;19;20282;-43
2024/03/13 04:16:27;;;;;;;88.80;31.77;;;;;;;;;;7351928;19;20676;-41
2024/03/13 04:18:57;;;;;;;93.40;33.30;;;;;;;;;;7328494;19;20327;-43
2024/03/13 04:21:27;;;;;;;87.25;30.85;;;;;;;;;;7350094;19;20353;-43
2024/03/13 04:23:56;;;;;;;87.83;30.93;;;;;;;;;;7329763;19;20367;-48
2024/03/13 04:26:29;;;;;;;83.13;29.48;;;;;;;;;;7349766;19;20329;-41
2024/03/13 04:28:59;;;;;;;88.07;31.02;;;;;;;;;;7327376;19;20286;-41
2024/03/13 04:31:28;;;;;;;78.70;29.40;;;;;;;;;;7350521;19;20896;-42
2024/03/13 04:33:58;;;;;;;73.53;28.93;;;;;;;;;;7330196;19;20278;-43
2024/03/13 04:36:27;;;;;;;78.32;29.80;;;;;;;;;;7351055;19;20344;-43
2024/03/13 04:38:57;;;;;;;88.40;30.40;;;;;;;;;;7327924;19;20830;-46
2024/03/13 04:41:30;;;;;;;80.38;30.27;;;;;;;;;;7349387;19;20328;-41
2024/03/13 04:44:00;;;;;;;94.10;32.03;;;;;;;;;;7328299;19;20337;-43
2024/03/13 04:46:29;;;;;;;85.88;30.50;;;;;;;;;;7350195;19;20345;-44
2024/03/13 04:48:58;;;;;;;93.30;30.73;;;;;;;;;;7328228;19;20734;-43
2024/03/13 04:51:28;;;;;;;94.35;31.17;;;;;;;;;;7349205;19;20313;-42
2024/03/13 04:53:57;;;;;;;93.10;31.00;;;;;;;;;;7328806;19;20290;-45
2024/03/13 04:56:29;;;;;;;97.32;31.02;;;;;;;;;;7349519;19;20357;-45
2024/03/13 04:58:59;;;;;;;87.80;30.47;;;;;;;;;;7326990;19;20322;-44
2024/03/13 05:01:30;;;;;;;82.25;30.90;;;;;;;;;;7349073;19;20385;-41
2024/03/13 05:03:59;;;;;;;78.78;29.40;;;;;;;;;;7328249;19;20359;-46
2024/03/13 05:06:29;;;;;;;82.80;29.35;;;;;;;;;;7349857;19;20348;-42
2024/03/13 05:08:58;;;;;;;80.07;29.23;;;;;;;;;;7324263;19;20846;-43
2024/03/13 05:11:30;;;;;;;82.55;31.33;;;;;;;;;;7345797;19;20352;-42
2024/03/13 05:13:59;;;;;;;82.68;29.13;;;;;;;;;;7327007;19;20744;-42
2024/03/13 05:16:30;;;;;;;76.88;28.83;;;;;;;;;;7349108;19;20825;-42
2024/03/13 05:19:00;;;;;;;78.38;30.23;;;;;;;;;;7326543;19;20317;-46
2024/03/13 05:21:29;;;;;;;84.05;30.20;;;;;;;;;;7348386;19;20333;-45
2024/03/13 05:23:59;;;;;;;100.28;32.92;;;;;;;;;;7327389;19;20304;-40
2024/03/13 05:26:33;;;;;;;106.32;32.05;;;;;;;;;;7348753;19;20767;-42
2024/03/13 05:29:04;;;;;;;97.28;31.38;;;;;;;;;;7324517;19;20382;-43
2024/03/13 05:31:33;;;;;;;92.68;30.23;;;;;;;;;;7348211;19;20333;-41
2024/03/13 05:34:02;;;;;;;101.97;30.63;;;;;;;;;;7328199;19;20377;-44
2024/03/13 05:36:32;;;;;;;99.67;32.47;;;;;;;;;;7349782;19;20325;-43
2024/03/13 05:39:02;;;;;;;170.93;63.15;;;;;;;;;;7325534;19;20341;-43
2024/03/13 05:41:34;;;;;;;114.82;39.80;;;;;;;;;;7347574;19;20391;-41
2024/03/13 05:44:04;;;;;;;162.73;64.35;;;;;;;;;;7325725;19;20324;-42
2024/03/13 05:46:35;;;;;;;106.97;45.28;;;;;;;;;;7348669;19;20337;-41
2024/03/13 05:49:05;;;;;;;78.95;36.10;;;;;;;;;;7323311;19;20321;-41
2024/03/13 05:51:34;;;;;;;82.53;36.85;;;;;;;;;;7347449;19;20378;-42
2024/03/13 05:54:04;;;;;;;66.32;31.27;;;;;;;;;;7326465;19;20317;-41
2024/03/13 05:56:37;;;;;;;99.63;44.88;;;;;;;;;;7345954;19;20380;-41
2024/03/13 05:59:06;;;;;;;136.60;62.20;;;;;;;;;;7326399;19;20317;-43
2024/03/13 06:01:36;;;;;;;97.30;45.05;;;;;;;;;;7346953;19;20404;-45
2024/03/13 06:04:06;;;;;;;78.37;35.77;;;;;;;;;;7325429;19;20337;-43
2024/03/13 06:06:35;;;;;;;59.17;27.42;;;;;;;;;;7346297;19;20323;-42
2024/03/13 06:09:06;;;;;;;58.10;27.23;;;;;;;;;;7323643;19;20749;-41
2024/03/13 06:11:38;;;;;;;78.80;35.97;;;;;;;;;;7342171;19;20345;-44
2024/03/13 06:14:07;;;;;;;76.63;35.28;;;;;;;;;;7325768;19;20321;-47
2024/03/13 06:16:36;;;;;;;70.18;29.98;;;;;;;;;;7346809;19;20333;-43
2024/03/13 06:19:06;;;;;;;69.70;30.52;;;;;;;;;;7326079;19;20328;-41
2024/03/13 06:21:36;;;;;;;69.40;30.23;;;;;;;;;;7347332;19;20373;-44
2024/03/13 06:24:06;;;;;;;72.50;28.10;;;;;;;;;;7326418;19;20449;-41
2024/03/13 06:26:40;;;;;;;68.35;29.42;;;;;;;;;;7347055;19;20412;-42
2024/03/13 06:31:51;;;;;;;70.90;31.80;;;;;;;;;;7325026;19;20340;-41
2024/03/13 06:34:23;;;;;;;115.38;51.88;;;;;;;;;;7347293;19;20331;-43
2024/03/13 06:36:52;;;;;;;80.53;37.78;;;;;;;;;;7322182;19;20340;-46
2024/03/13 06:39:21;;;;;;;77.47;35.53;;;;;;;;;;7346582;19;20330;-43
2024/03/13 06:41:54;;;;;;;68.35;31.65;;;;;;;;;;7321052;19;20329;-41
2024/03/13 06:44:23;;;;;;;56.10;26.60;;;;;;;;;;7345774;19;20352;-45
2024/03/13 06:46:55;;;;;;;53.65;24.30;;;;;;;;;;7323988;19;20336;-45
2024/03/13 06:49:25;;;;;;;53.55;24.10;;;;;;;;;;7343128;19;20321;-46
2024/03/13 06:51:54;;;;;;;62.00;26.60;;;;;;;;;;7323435;19;20857;-41
2024/03/13 06:54:24;;;;;;;68.03;27.88;;;;;;;;;;7345823;19;20889;-42
2024/03/13 06:56:56;;;;;;;69.25;27.45;;;;;;;;;;7323622;19;20334;-44
2024/03/13 06:59:25;;;;;;;71.50;28.85;;;;;;;;;;7344729;19;20328;-44
2024/03/13 07:01:55;;;;;;;77.30;30.00;;;;;;;;;;7322493;19;21069;-50
2024/03/13 07:04:25;;;;;;;77.17;29.13;;;;;;;;;;7345391;19;20333;-44
2024/03/13 07:06:57;;;;;;;74.45;28.75;;;;;;;;;;7322743;19;20337;-41
2024/03/13 07:09:28;;;;;;;81.40;30.23;;;;;;;;;;7340853;19;20333;-45
2024/03/13 07:11:59;;;;;;;76.07;28.80;;;;;;;;;;7323668;19;20290;-48
2024/03/13 07:14:29;;;;;;;78.22;30.00;;;;;;;;;;7345496;19;20336;-42
2024/03/13 07:16:58;;;;;;;85.13;30.42;;;;;;;;;;7321266;19;20630;-41
2024/03/13 07:19:28;;;;;;;86.53;32.80;;;;;;;;;;7345126;19;20336;-43
2024/03/13 07:21:58;;;;;;;86.15;30.50;;;;;;;;;;7322727;19;20301;-41
2024/03/13 07:24:27;;;;;;;81.18;31.35;;;;;;;;;;7345410;19;20707;-48
2024/03/13 07:27:00;;;;;;;76.15;29.10;;;;;;;;;;7323141;19;20286;-43
2024/03/13 07:29:29;;;;;;;71.72;28.20;;;;;;;;;;7340187;19;20962;-40
2024/03/13 07:31:58;;;;;;;77.07;30.02;;;;;;;;;;7321267;19;20282;-41
2024/03/13 07:34:28;;;;;;;76.95;29.02;;;;;;;;;;7343572;19;20413;-42
2024/03/13 07:36:58;;;;;;;71.40;27.98;;;;;;;;;;7320369;19;20306;-45
2024/03/13 07:39:28;;;;;;;76.03;28.65;;;;;;;;;;7342960;19;20333;-42
2024/03/13 07:42:03;;;;;;;66.57;27.65;;;;;;;;;;7321364;19;20815;-43
2024/03/13 07:44:33;;;;;;;75.78;29.10;;;;;;;;;;7343126;19;20331;-41
2024/03/13 07:47:02;;;;;;;67.03;27.50;;;;;;;;;;7322853;19;20361;-41
2024/03/13 07:49:32;;;;;;;67.70;27.95;;;;;;;;;;7341060;19;20336;-49
2024/03/13 07:52:02;;;;;;;73.97;28.70;;;;;;;;;;7322387;19;20320;-46
2024/03/13 07:54:32;;;;;;;60.78;25.45;;;;;;;;;;7344247;19;20353;-40
2024/03/13 07:57:04;;;;;;;67.90;26.33;;;;;;;;;;7321726;19;21031;-46
2024/03/13 07:59:34;;;;;;;58.03;25.98;;;;;;;;;;7344200;19;20333;-45
2024/03/13 08:02:04;;;;;;;61.80;25.45;;;;;;;;;;7321399;19;20392;-41
2024/03/13 08:04:36;;;;;;;57.03;23.95;;;;;;;;;;7344383;19;20333;-45
2024/03/13 08:07:06;;;;;;;57.42;24.33;;;;;;;;;;7320675;19;20353;-44
2024/03/13 08:09:49;;;;;;;57.45;25.20;;;;;;;;;;7320254;19;20324;-42
2024/03/13 08:12:35;;;;;;;55.17;23.50;;;;;;;;;;7341818;19;20905;-44
2024/03/13 08:15:19;;;;;;;51.95;22.23;;;;;;;;;;7322176;19;20327;-40
2024/03/13 08:18:02;;;;;;;50.60;23.27;;;;;;;;;;7321960;19;20337;-44
2024/03/13 08:20:46;;;;;;;53.90;23.33;;;;;;;;;;7327469;19;20654;-43
2024/03/13 08:23:29;;;;;;;49.55;22.98;;;;;;;;;;7351221;19;20673;-40
2024/03/13 08:26:12;;;;;;;49.13;21.60;;;;;;;;;;7328813;19;20325;-46
2024/03/13 08:28:58;;;;;;;49.33;23.02;;;;;;;;;;7323889;19;20713;-44
2024/03/13 08:31:42;;;;;;;48.33;22.30;;;;;;;;;;7326797;19;20324;-50
2024/03/13 08:34:25;;;;;;;82.53;34.03;;;;;;;;;;7349315;19;20320;-44
2024/03/13 08:37:10;;;;;;;43.53;20.58;;;;;;;;;;7325614;19;20907;-44
2024/03/13 08:39:53;;;;;;;46.42;20.80;;;;;;;;;;7327695;19;20333;-41
2024/03/13 08:42:37;;;;;;;44.75;20.13;;;;;;;;;;7350144;19;20757;-45
2024/03/13 08:45:22;;;;;;;45.47;20.90;;;;;;;;;;7325560;19;20324;-43
2024/03/13 08:48:07;;;;;;;47.43;21.80;;;;;;;;;;7325028;19;20324;-43
2024/03/13 08:50:51;;;;;;;47.80;20.73;;;;;;;;;;7327127;19;20360;-45
2024/03/13 08:53:34;;;;;;;44.33;20.60;;;;;;;;;;7350377;19;20690;-41
2024/03/13 08:56:19;;;;;;;43.65;19.70;;;;;;;;;;7328734;19;20321;-41
2024/03/13 08:59:02;;;;;;;45.50;19.40;;;;;;;;;;7327825;19;20710;-43
2024/03/13 09:01:48;;;;;;;45.97;20.63;;;;;;;;;;7329463;19;20404;-47
2024/03/13 09:04:31;;;;;;;42.17;20.70;;;;;;;;;;7350988;19;20425;-40
2024/03/13 09:07:16;;;;;;;45.75;20.73;;;;;;;;;;7327465;19;20368;-41
2024/03/13 09:09:45;;;;;;;45.60;19.80;;;;;;;;;;7326751;19;20363;-46
2024/03/13 09:12:17;;;;;;;45.05;20.67;;;;;;;;;;7348120;19;20920;-40
2024/03/13 09:14:47;;;;;;;42.90;20.27;;;;;;;;;;7328309;19;20880;-42
2024/03/13 09:17:19;;;;;;;44.17;17.95;;;;;;;;;;7347921;19;20908;-42
2024/03/13 09:19:49;;;;;;;41.42;17.80;;;;;;;;;;7326980;19;20336;-44
2024/03/13 09:22:20;;;;;;;37.05;17.80;;;;;;;;;;7348495;19;21127;-41
2024/03/13 09:24:50;;;;;;;42.38;19.10;;;;;;;;;;7327045;19;20416;-45
2024/03/13 09:27:20;;;;;;;39.90;18.25;;;;;;;;;;7347861;19;20699;-42
2024/03/13 09:29:50;;;;;;;40.72;17.77;;;;;;;;;;7324198;19;20412;-39
2024/03/13 09:32:22;;;;;;;40.95;18.48;;;;;;;;;;7348334;19;20314;-41
2024/03/13 09:34:52;;;;;;;42.83;18.40;;;;;;;;;;7326997;19;20924;-39
2024/03/13 09:37:21;;;;;;;39.42;18.50;;;;;;;;;;7347360;19;20361;-44
2024/03/13 09:39:52;;;;;;;41.05;18.10;;;;;;;;;;7326768;19;20416;-43
2024/03/13 09:42:23;;;;;;;38.58;17.95;;;;;;;;;;7347697;19;20335;-47
2024/03/13 09:44:53;;;;;;;37.00;16.60;;;;;;;;;;7323946;19;20324;-41
2024/03/13 09:47:28;;;;;;;41.80;18.55;;;;;;;;;;7347683;19;20349;-42
2024/03/13 09:49:59;;;;;;;37.50;16.83;;;;;;;;;;7326406;19;20715;-46
2024/03/13 09:52:28;;;;;;;39.65;17.92;;;;;;;;;;7347825;19;20325;-45
2024/03/13 09:54:58;;;;;;;42.17;18.70;;;;;;;;;;7326555;19;20809;-42
2024/03/13 09:57:28;;;;;;;41.20;20.48;;;;;;;;;;7348282;19;20364;-48
2024/03/13 09:59:58;;;;;;;35.72;17.45;;;;;;;;;;7326339;19;20290;-48
2024/03/13 10:02:33;;;;;;;37.83;16.55;;;;;;;;;;7345772;19;20340;-43
2024/03/13 10:05:03;;;;;;;35.72;17.55;;;;;;;;;;7326922;19;20388;-44
2024/03/13 10:07:32;;;;;;;39.15;18.13;;;;;;;;;;7347180;19;20357;-43
2024/03/13 10:10:03;;;;;;;34.05;17.13;;;;;;;;;;7325767;19;20297;-43
2024/03/13 10:12:32;;;;;;;31.98;16.02;;;;;;;;;;7347914;19;20329;-47
2024/03/13 10:15:06;;;;;;;35.55;16.40;;;;;;;;;;7327086;19;20313;-43
2024/03/13 10:17:44;;;;;;;36.33;17.17;;;;;;;;;;7324328;19;20349;-40
2024/03/13 10:20:16;;;;;;;32.08;16.02;;;;;;;;;;7345982;19;20325;-41
2024/03/13 10:22:47;;;;;;;35.38;15.30;;;;;;;;;;7324907;19;20353;-42
2024/03/13 10:25:19;;;;;;;35.78;16.85;;;;;;;;;;7346329;19;20353;-43
2024/03/13 10:27:49;;;;;;;35.60;16.60;;;;;;;;;;7323176;19;20371;-43
2024/03/13 10:30:19;;;;;;;31.55;16.15;;;;;;;;;;7346797;19;20762;-47
2024/03/13 10:32:51;;;;;;;32.40;15.40;;;;;;;;;;7325349;19;21178;-44
2024/03/13 10:35:21;;;;;;;28.30;14.80;;;;;;;;;;7346831;19;20368;-47
2024/03/13 10:37:50;;;;;;;28.75;14.75;;;;;;;;;;7324589;19;20991;-42
2024/03/13 10:40:20;;;;;;;29.27;13.40;;;;;;;;;;7345770;19;20429;-42
2024/03/13 10:42:49;;;;;;;30.10;14.77;;;;;;;;;;7322993;19;20412;-40
2024/03/13 10:45:19;;;;;;;27.30;13.43;;;;;;;;;;7346060;19;20404;-43
2024/03/13 10:47:51;;;;;;;30.47;14.40;;;;;;;;;;7323846;19;20384;-46
2024/03/13 10:50:21;;;;;;;31.33;14.70;;;;;;;;;;7345993;19;20341;-43
2024/03/13 10:52:50;;;;;;;28.95;14.18;;;;;;;;;;7324403;19;20996;-43
2024/03/13 10:55:20;;;;;;;30.30;13.80;;;;;;;;;;7346477;19;20860;-42
2024/03/13 10:57:53;;;;;;;26.55;13.30;;;;;;;;;;7320925;19;20758;-40
2024/03/13 11:00:23;;;;;;;26.90;14.18;;;;;;;;;;7345338;19;20324;-42
2024/03/13 11:02:56;;;;;;;27.75;13.45;;;;;;;;;;7324085;19;20328;-44
2024/03/13 11:05:25;;;;;;;30.37;15.60;;;;;;;;;;7346635;19;20328;-43
2024/03/13 11:07:55;;;;;;;26.50;13.63;;;;;;;;;;7323902;19;20357;-44
2024/03/13 11:10:25;;;;;;;27.10;13.20;;;;;;;;;;7345001;19;20324;-47
2024/03/13 11:12:55;;;;;;;27.25;13.90;;;;;;;;;;7323672;19;20320;-41
2024/03/13 11:15:26;;;;;;;27.30;13.07;;;;;;;;;;7346025;19;20340;-43
2024/03/13 11:17:59;;;;;;;24.42;12.75;;;;;;;;;;7323445;19;20360;-46
2024/03/13 11:20:32;;;;;;;27.73;14.48;;;;;;;;;;7345875;19;20321;-43
2024/03/13 11:23:05;;;;;;;23.52;11.93;;;;;;;;;;7324452;19;20296;-43
2024/03/13 11:25:36;;;;;;;20.48;11.55;;;;;;;;;;7346521;19;20337;-41
2024/03/13 11:28:07;;;;;;;25.45;12.95;;;;;;;;;;7323217;19;20323;-47
2024/03/13 11:30:37;;;;;;;22.27;11.15;;;;;;;;;;7346345;19;20388;-42
2024/03/13 11:33:09;;;;;;;20.20;9.90;;;;;;;;;;7324225;19;20748;-42
2024/03/13 11:35:39;;;;;;;27.10;12.77;;;;;;;;;;7328424;19;21089;-43
2024/03/13 11:38:11;;;;;;;22.85;10.90;;;;;;;;;;7346220;19;20324;-41
2024/03/13 11:40:41;;;;;;;22.17;10.98;;;;;;;;;;7322741;19;20860;-47
2024/03/13 11:43:11;;;;;;;21.27;11.13;;;;;;;;;;7345145;19;20401;-46
2024/03/13 11:45:44;;;;;;;22.35;11.40;;;;;;;;;;7323539;19;20744;-43
2024/03/13 11:48:20;;;;;;;20.58;11.13;;;;;;;;;;7343498;19;20325;-43
2024/03/13 11:51:05;;;;;;;21.70;10.68;;;;;;;;;;7322660;19;20394;-47
2024/03/13 11:53:36;;;;;;;27.00;13.90;;;;;;;;;;7347326;19;20363;-44
2024/03/13 11:56:09;;;;;;;23.33;11.70;;;;;;;;;;7332127;19;20321;-48
2024/03/13 11:58:39;;;;;;;20.45;10.85;;;;;;;;;;7334605;19;20308;-47
2024/03/13 12:01:12;;;;;;;20.75;10.70;;;;;;;;;;7351765;19;20700;-44
2024/03/13 12:03:50;;;;;;;18.30;10.02;;;;;;;;;;7330561;19;20344;-42
2024/03/13 12:06:36;;;;;;;19.20;10.25;;;;;;;;;;7352021;19;20889;-42
2024/03/13 12:09:09;;;;;;;22.85;11.50;;;;;;;;;;7331596;19;20337;-44
2024/03/13 12:11:40;;;;;;;20.65;11.00;;;;;;;;;;7331710;19;20368;-42
2024/03/13 12:14:10;;;;;;;21.17;10.60;;;;;;;;;;7351291;19;20737;-50
2024/03/13 12:16:42;;;;;;;21.20;10.38;;;;;;;;;;7332637;19;20327;-44
2024/03/13 12:19:15;;;;;;;20.58;11.10;;;;;;;;;;7350295;19;20702;-45
2024/03/13 12:21:44;;;;;;;22.75;12.13;;;;;;;;;;7327964;19;20369;-42
2024/03/13 12:24:14;;;;;;;22.30;11.02;;;;;;;;;;7349683;19;20396;-45
2024/03/13 12:26:43;;;;;;;18.95;10.40;;;;;;;;;;7329295;19;20328;-45
2024/03/13 12:29:13;;;;;;;21.52;11.25;;;;;;;;;;7349517;19;20876;-44
2024/03/13 12:31:43;;;;;;;21.17;10.87;;;;;;;;;;7328046;19;20406;-44
2024/03/13 12:34:18;;;;;;;19.98;11.30;;;;;;;;;;7349773;19;20320;-47
2024/03/13 12:36:47;;;;;;;19.40;10.50;;;;;;;;;;7327881;19;20685;-44
2024/03/13 12:39:18;;;;;;;26.10;13.20;;;;;;;;;;7350104;19;20408;-49
2024/03/13 12:41:48;;;;;;;20.85;10.20;;;;;;;;;;7328562;19;20852;-47
2024/03/13 12:44:18;;;;;;;20.83;10.43;;;;;;;;;;7348536;19;20328;-44
2024/03/13 12:46:48;;;;;;;21.17;11.15;;;;;;;;;;7328245;19;20336;-42
2024/03/13 12:49:22;;;;;;;20.80;10.90;;;;;;;;;;7349937;19;20924;-49
2024/03/13 12:51:54;;;;;;;21.40;10.73;;;;;;;;;;7327744;19;20329;-45
2024/03/13 12:54:26;;;;;;;26.05;12.98;;;;;;;;;;7349331;19;20321;-44
2024/03/13 12:56:57;;;;;;;31.35;13.48;;;;;;;;;;7328634;19;20329;-47
2024/03/13 12:59:27;;;;;;;23.42;12.02;;;;;;;;;;7350255;19;20341;-51
2024/03/13 13:01:57;;;;;;;25.33;11.68;;;;;;;;;;7328736;19;20332;-42
2024/03/13 13:04:29;;;;;;;21.40;11.93;;;;;;;;;;7349233;19;20429;-44
2024/03/13 13:06:58;;;;;;;21.75;11.75;;;;;;;;;;7328712;19;20369;-45
2024/03/13 13:09:29;;;;;;;23.80;11.35;;;;;;;;;;7349867;19;20335;-45
2024/03/13 13:11:58;;;;;;;26.50;11.32;;;;;;;;;;7322855;19;20629;-45
2024/03/13 13:14:27;;;;;;;22.55;11.50;;;;;;;;;;7341243;19;20329;-50
2024/03/13 13:16:57;;;;;;;25.50;13.25;;;;;;;;;;7322451;19;20349;-47
2024/03/13 13:19:29;;;;;;;24.77;12.05;;;;;;;;;;7348170;19;20325;-44
2024/03/13 13:21:59;;;;;;;25.75;12.75;;;;;;;;;;7326246;19;20355;-50
2024/03/13 13:24:28;;;;;;;22.85;12.70;;;;;;;;;;7349139;19;20333;-44
2024/03/13 13:26:58;;;;;;;25.03;13.47;;;;;;;;;;7326814;19;20294;-47
2024/03/13 13:29:28;;;;;;;23.25;12.00;;;;;;;;;;7348866;19;20353;-53
2024/03/13 13:31:59;;;;;;;29.60;14.35;;;;;;;;;;7323793;19;20352;-48
2024/03/13 13:34:31;;;;;;;26.10;12.88;;;;;;;;;;7347960;19;20342;-43
2024/03/13 13:37:01;;;;;;;21.98;11.88;;;;;;;;;;7326162;19;20305;-44
2024/03/13 13:39:31;;;;;;;25.97;12.37;;;;;;;;;;7348376;19;20426;-44
2024/03/13 13:42:04;;;;;;;22.80;12.05;;;;;;;;;;7325725;19;20372;-46
2024/03/13 13:44:33;;;;;;;26.15;13.00;;;;;;;;;;7349428;19;20398;-46
2024/03/13 13:47:03;;;;;;;21.45;11.65;;;;;;;;;;7326932;19;20293;-45
2024/03/13 13:49:35;;;;;;;25.80;12.80;;;;;;;;;;7349234;19;20342;-45
2024/03/13 13:52:05;;;;;;;30.13;14.82;;;;;;;;;;7325431;19;20328;-46
2024/03/13 13:54:34;;;;;;;24.90;12.40;;;;;;;;;;7346104;19;20407;-42
2024/03/13 13:57:04;;;;;;;25.33;13.15;;;;;;;;;;7326488;19;20875;-43
2024/03/13 13:59:33;;;;;;;25.95;12.85;;;;;;;;;;7344566;19;21057;-45
2024/03/13 14:02:04;;;;;;;35.78;16.95;;;;;;;;;;7326366;19;20396;-47
2024/03/13 14:04:36;;;;;;;25.63;12.88;;;;;;;;;;7347824;19;20324;-45
2024/03/13 14:07:06;;;;;;;30.52;13.65;;;;;;;;;;7323676;19;20388;-47
2024/03/13 14:09:36;;;;;;;24.92;12.60;;;;;;;;;;7345698;19;20880;-54
2024/03/13 14:12:07;;;;;;;28.63;13.90;;;;;;;;;;7325609;19;22862;-45
2024/03/13 14:14:36;;;;;;;24.08;13.02;;;;;;;;;;7346964;19;20349;-45
2024/03/13 14:17:07;;;;;;;25.70;14.02;;;;;;;;;;7323618;19;20349;-46
2024/03/13 14:19:39;;;;;;;27.10;14.30;;;;;;;;;;7346400;19;20332;-45
2024/03/13 14:22:10;;;;;;;34.00;16.42;;;;;;;;;;7326207;19;20388;-46
2024/03/13 14:24:40;;;;;;;27.80;13.90;;;;;;;;;;7324336;19;20329;-47
2024/03/13 14:27:10;;;;;;;27.52;14.45;;;;;;;;;;7346129;19;20356;-45
2024/03/13 14:29:41;;;;;;;34.95;15.30;;;;;;;;;;7323235;19;20675;-44
2024/03/13 14:32:11;;;;;;;29.65;14.45;;;;;;;;;;7343945;19;20350;-44
2024/03/13 14:34:43;;;;;;;31.25;16.75;;;;;;;;;;7322741;19;20325;-47
2024/03/13 14:37:29;;;;;;;31.20;16.70;;;;;;;;;;7339913;19;20337;-45
2024/03/13 14:40:03;;;;;;;31.50;15.80;;;;;;;;;;7323033;19;20799;-48
2024/03/13 14:42:34;;;;;;;30.23;16.10;;;;;;;;;;7346890;19;20331;-45
2024/03/13 14:45:06;;;;;;;30.05;16.13;;;;;;;;;;7325267;19;20306;-42
2024/03/13 14:47:36;;;;;;;31.15;15.95;;;;;;;;;;7345067;19;20364;-45
2024/03/13 14:50:10;;;;;;;27.30;14.68;;;;;;;;;;7324611;19;21593;-41
2024/03/13 14:52:40;;;;;;;31.20;16.33;;;;;;;;;;7326700;19;20700;-45
2024/03/13 14:55:23;;;;;;;33.60;16.08;;;;;;;;;;7345377;19;20321;-45
2024/03/13 14:57:53;;;;;;;33.47;16.58;;;;;;;;;;7321859;19;20691;-44
2024/03/13 15:00:22;;;;;;;31.75;16.30;;;;;;;;;;7344105;19;20428;-48
2024/03/13 15:02:53;;;;;;;32.42;16.75;;;;;;;;;;7323651;19;20341;-44